Time;durP1;ratioP1;P1;durP2;ratioP2;P2;SDS_P1;SDS_P2;PMS_P1;PMS_P2;Temp;Humidity;BMP_temperature;BMP_pressure;BME280_temperature;BME280_humidity;BME280_pressure;Samples;Min_cycle;Max_cycle;Signal;HPM_P1;HPM_P2
2022/02/03 00:03:57;;;;;;;9.80;2.70;;;;;;;;;;10343846;28;20026;-76
2022/02/03 00:09:22;;;;;;;3.23;1.33;;;;;;;;;;10335679;28;20061;-75
2022/02/03 00:25:13;;;;;;;9.97;2.07;;;;;;;;;;10339030;28;20038;-74
2022/02/03 00:30:19;;;;;;;9.23;2.27;;;;;;;;;;10343339;28;20447;-77
2022/02/03 00:35:47;;;;;;;4.20;2.13;;;;;;;;;;10332358;28;20044;-75
2022/02/03 00:51:49;;;;;;;9.53;2.10;;;;;;;;;;10347088;28;20088;-77
2022/02/03 00:56:53;;;;;;;8.67;2.87;;;;;;;;;;10342460;28;20031;-76
2022/02/03 01:02:00;;;;;;;1.53;0.90;;;;;;;;;;10348608;28;20375;-75
2022/02/03 01:07:03;;;;;;;4.97;2.33;;;;;;;;;;10342811;28;20108;-76
2022/02/03 01:12:14;;;;;;;6.77;2.83;;;;;;;;;;10341664;28;20034;-76
2022/02/03 01:17:25;;;;;;;9.87;3.20;;;;;;;;;;10343176;28;20034;-74
2022/02/03 01:44:21;;;;;;;2.83;1.27;;;;;;;;;;10250774;28;20472;-75
2022/02/03 01:49:40;;;;;;;;;;;;;;;;;;10315293;28;20053;-76
2022/02/03 01:54:46;;;;;;;9.23;2.53;;;;;;;;;;10331086;28;20381;-76
2022/02/03 01:59:53;;;;;;;8.17;3.30;;;;;;;;;;10328511;28;20133;-76
2022/02/03 02:05:01;;;;;;;4.53;1.80;;;;;;;;;;10324834;28;20450;-75
2022/02/03 02:10:21;;;;;;;7.27;2.70;;;;;;;;;;10347349;22;20041;-81
2022/02/03 02:37:24;;;;;;;5.73;2.40;;;;;;;;;;10345768;28;20056;-79
2022/02/03 02:42:35;;;;;;;6.53;2.87;;;;;;;;;;10359135;28;20120;-81
2022/02/03 02:47:50;;;;;;;6.27;2.30;;;;;;;;;;10355085;28;20117;-79
2022/02/03 02:52:55;;;;;;;;;;;;;;;;;;10338960;28;20037;-80
2022/02/03 02:58:19;;;;;;;4.43;1.90;;;;;;;;;;10340453;28;19984;-80
2022/02/03 03:30:15;;;;;;;2.83;1.27;;;;;;;;;;10311761;28;20116;-70
2022/02/03 03:35:33;;;;;;;5.37;2.60;;;;;;;;;;10322917;28;21483;-70
2022/02/03 03:40:36;;;;;;;3.90;2.20;;;;;;;;;;10321058;28;20368;-70
2022/02/03 03:45:46;;;;;;;6.75;2.88;;;;;;;;;;10325842;28;20184;-70
2022/02/03 03:50:50;;;;;;;3.73;1.73;;;;;;;;;;10321794;28;20073;-70
2022/02/03 03:55:59;;;;;;;;;;;;;;;;;;10325926;28;20143;-70
2022/02/03 04:39:45;;;;;;;3.70;1.40;;;;;;;;;;10333971;28;20042;-70
2022/02/03 05:07:05;;;;;;;3.37;1.67;;;;;;;;;;10340555;28;20062;-71
2022/02/03 05:12:27;;;;;;;1.07;0.80;;;;;;;;;;10363954;28;20781;-72
2022/02/03 05:45:36;;;;;;;1.20;0.53;;;;;;;;;;10399332;28;20068;-71
2022/02/03 05:51:03;;;;;;;1.40;0.93;;;;;;;;;;10338150;28;20080;-70
2022/02/03 06:01:57;;;;;;;5.53;0.67;;;;;;;;;;10341316;28;20091;-71
2022/02/03 06:12:45;;;;;;;5.10;2.13;;;;;;;;;;10320415;28;20082;-71
2022/02/03 06:23:24;;;;;;;2.37;1.23;;;;;;;;;;10333409;28;20035;-70
2022/02/03 06:28:29;;;;;;;2.03;1.33;;;;;;;;;;10376146;28;20082;-73
2022/02/03 06:33:32;;;;;;;3.87;1.77;;;;;;;;;;10372232;28;20034;-71
2022/02/03 06:38:35;;;;;;;1.63;1.20;;;;;;;;;;10342021;28;20118;-70
2022/02/03 06:43:39;;;;;;;2.97;1.57;;;;;;;;;;10328490;28;20370;-70
2022/02/03 06:48:49;;;;;;;4.00;2.00;;;;;;;;;;10322513;28;20131;-72
2022/02/03 06:53:57;;;;;;;1.10;0.50;;;;;;;;;;10311002;28;20453;-71
2022/02/03 06:59:03;;;;;;;3.73;1.40;;;;;;;;;;10315254;28;20539;-71
2022/02/03 07:04:16;;;;;;;4.50;1.80;;;;;;;;;;10321466;28;20030;-70
2022/02/03 07:09:20;;;;;;;2.03;1.33;;;;;;;;;;10320450;28;20054;-70
2022/02/03 07:14:29;;;;;;;3.85;1.80;;;;;;;;;;10309027;28;20045;-71
2022/02/03 07:19:36;;;;;;;3.47;1.00;;;;;;;;;;10315360;28;20065;-70
2022/02/03 07:24:40;;;;;;;3.63;1.80;;;;;;;;;;10323608;28;20046;-70
2022/02/03 07:29:44;;;;;;;5.97;2.00;;;;;;;;;;10320613;28;20050;-71
2022/02/03 07:34:50;;;;;;;2.73;1.77;;;;;;;;;;10323313;28;20490;-68
2022/02/03 07:39:53;;;;;;;2.93;1.50;;;;;;;;;;10318236;28;20042;-70
2022/02/03 07:45:04;;;;;;;3.77;1.53;;;;;;;;;;10313568;28;20150;-70
2022/02/03 07:50:08;;;;;;;5.00;1.80;;;;;;;;;;10336802;28;20042;-71
2022/02/03 07:55:11;;;;;;;2.50;1.27;;;;;;;;;;10315231;28;20113;-70
2022/02/03 08:00:19;;;;;;;5.10;1.93;;;;;;;;;;10337001;28;20053;-70
2022/02/03 08:05:46;;;;;;;1.97;1.10;;;;;;;;;;10321698;28;20042;-71
2022/02/03 08:10:51;;;;;;;3.92;2.00;;;;;;;;;;10347187;23;20030;-73
2022/02/03 08:16:02;;;;;;;1.73;1.13;;;;;;;;;;10398246;28;20034;-75
2022/02/03 08:21:13;;;;;;;2.80;1.52;;;;;;;;;;10398792;28;20553;-73
2022/02/03 08:26:35;;;;;;;1.73;1.25;;;;;;;;;;10405429;28;20095;-74
2022/02/03 08:31:49;;;;;;;4.03;1.33;;;;;;;;;;10411804;28;20037;-74
2022/02/03 08:36:52;;;;;;;3.38;1.98;;;;;;;;;;10403319;28;20048;-75
2022/02/03 08:41:57;;;;;;;2.67;1.63;;;;;;;;;;10406564;28;20092;-74
2022/02/03 08:47:01;;;;;;;2.53;1.80;;;;;;;;;;10398059;28;20167;-74
2022/02/03 08:52:09;;;;;;;3.38;2.10;;;;;;;;;;10395514;28;20042;-75
2022/02/03 08:57:19;;;;;;;1.80;1.20;;;;;;;;;;10394640;28;20108;-72
2022/02/03 09:40:43;;;;;;;2.35;1.80;;;;;;;;;;10396854;28;20043;-74
2022/02/03 09:56:52;;;;;;;2.40;1.73;;;;;;;;;;10394119;28;20050;-75
2022/02/03 10:02:07;;;;;;;1.93;1.60;;;;;;;;;;10391140;28;20038;-72
2022/02/03 10:07:17;;;;;;;1.90;1.50;;;;;;;;;;10392041;28;20306;-75
2022/02/03 10:12:30;;;;;;;6.25;2.85;;;;;;;;;;10389666;28;20030;-75
2022/02/03 10:17:33;;;;;;;2.60;1.67;;;;;;;;;;10390558;28;20529;-74
2022/02/03 10:22:46;;;;;;;1.20;1.10;;;;;;;;;;10400831;28;20041;-74
2022/02/03 10:27:58;;;;;;;1.35;1.25;;;;;;;;;;10393444;28;20045;-73
2022/02/03 10:33:01;;;;;;;1.45;1.08;;;;;;;;;;10391273;28;20103;-74
2022/02/03 10:38:44;;;;;;;1.88;1.52;;;;;;;;;;10393727;28;20034;-73
2022/02/03 10:49:23;;;;;;;2.80;1.30;;;;;;;;;;10397973;28;20503;-74
2022/02/03 10:54:46;;;;;;;1.67;1.15;;;;;;;;;;10393967;28;20050;-74
2022/02/03 11:00:14;;;;;;;1.10;0.93;;;;;;;;;;10397367;28;20046;-72
2022/02/03 11:05:42;;;;;;;1.73;1.30;;;;;;;;;;10390069;28;20084;-72
2022/02/03 11:10:55;;;;;;;1.92;0.98;;;;;;;;;;10389607;28;20522;-73
2022/02/03 11:16:01;;;;;;;1.08;0.80;;;;;;;;;;10390370;28;20329;-73
2022/02/03 11:21:04;;;;;;;1.30;1.05;;;;;;;;;;10391934;28;20041;-73
2022/02/03 11:26:18;;;;;;;1.20;1.00;;;;;;;;;;10389811;28;20029;-73
2022/02/03 11:42:47;;;;;;;2.10;1.33;;;;;;;;;;10399642;28;20047;-74
2022/02/03 11:59:13;;;;;;;3.70;2.17;;;;;;;;;;10393042;28;20072;-74
2022/02/03 12:04:43;;;;;;;3.45;1.40;;;;;;;;;;10393435;28;20042;-73
2022/02/03 12:15:39;;;;;;;2.80;1.67;;;;;;;;;;10411694;28;20029;-74
2022/02/03 12:20:49;;;;;;;2.92;1.45;;;;;;;;;;10397103;28;20125;-73
2022/02/03 12:26:00;;;;;;;1.83;1.40;;;;;;;;;;10404186;28;20034;-74
2022/02/03 12:42:01;;;;;;;1.70;1.30;;;;;;;;;;10388270;28;20432;-72
2022/02/03 12:47:05;;;;;;;0.85;0.50;;;;;;;;;;10395815;28;20030;-74
2022/02/03 12:52:24;;;;;;;2.30;1.60;;;;;;;;;;10395088;28;20474;-74
2022/02/03 12:57:32;;;;;;;2.22;1.20;;;;;;;;;;10406324;28;20038;-72
2022/02/03 13:02:37;;;;;;;1.23;0.70;;;;;;;;;;10395869;28;20034;-75
2022/02/03 13:07:40;;;;;;;1.33;0.85;;;;;;;;;;10399478;28;20563;-75
2022/02/03 13:12:50;;;;;;;1.55;0.95;;;;;;;;;;10384308;28;20319;-73
2022/02/03 13:17:58;;;;;;;0.90;0.65;;;;;;;;;;10387813;28;20038;-73
2022/02/03 13:23:05;;;;;;;2.65;0.85;;;;;;;;;;10389581;28;20041;-73
2022/02/03 13:28:12;;;;;;;3.47;1.45;;;;;;;;;;10397180;28;20044;-73
2022/02/03 13:33:23;;;;;;;1.77;0.80;;;;;;;;;;10398314;28;20560;-73
2022/02/03 13:38:38;;;;;;;0.70;0.70;;;;;;;;;;10386727;28;20042;-72
2022/02/03 13:43:42;;;;;;;0.63;0.45;;;;;;;;;;10389884;28;20069;-74
2022/02/03 13:48:50;;;;;;;0.85;0.47;;;;;;;;;;10396405;28;20033;-74
2022/02/03 13:54:02;;;;;;;4.68;1.20;;;;;;;;;;10395561;28;20382;-74
2022/02/03 14:15:15;;;;;;;1.58;1.15;;;;;;;;;;10367486;23;20599;-71
2022/02/03 14:20:43;;;;;;;3.70;1.40;;;;;;;;;;10350413;28;20061;-73
2022/02/03 14:31:09;;;;;;;1.45;0.90;;;;;;;;;;10349842;28;20796;-71
2022/02/03 14:36:18;;;;;;;2.60;1.40;;;;;;;;;;10346823;28;20050;-70
2022/02/03 14:41:26;;;;;;;2.05;0.98;;;;;;;;;;10347783;28;20685;-71
2022/02/03 14:46:31;;;;;;;2.17;0.77;;;;;;;;;;10365742;28;20053;-72
2022/02/03 14:51:46;;;;;;;3.85;1.00;;;;;;;;;;10346470;28;20037;-72
2022/02/03 15:02:11;;;;;;;1.77;0.77;;;;;;;;;;10340182;28;20418;-73
2022/02/03 15:07:15;;;;;;;0.30;0.20;;;;;;;;;;10343410;28;20462;-71
2022/02/03 15:12:39;;;;;;;0.63;0.47;;;;;;;;;;10346073;28;20041;-72
2022/02/03 15:17:41;;;;;;;2.80;1.40;;;;;;;;;;10346983;28;20038;-72
2022/02/03 15:22:46;;;;;;;3.80;1.02;;;;;;;;;;10352479;28;20034;-71
2022/02/03 15:27:49;;;;;;;5.20;1.10;;;;;;;;;;10343074;28;20068;-72
2022/02/03 15:32:52;;;;;;;5.27;1.60;;;;;;;;;;10349098;28;20507;-69
2022/02/03 15:37:56;;;;;;;3.90;1.13;;;;;;;;;;10347823;28;20096;-71
2022/02/03 15:43:04;;;;;;;2.50;1.40;;;;;;;;;;10345946;28;20104;-73
2022/02/03 15:48:19;;;;;;;3.85;0.80;;;;;;;;;;10349445;28;20042;-73
2022/02/03 16:04:24;;;;;;;5.72;2.30;;;;;;;;;;10342454;28;20041;-71
2022/02/03 16:20:33;;;;;;;6.22;2.40;;;;;;;;;;10349979;28;20483;-72
2022/02/03 16:52:44;;;;;;;6.95;2.35;;;;;;;;;;10358916;28;20072;-71
2022/02/03 16:57:53;;;;;;;11.98;2.72;;;;;;;;;;10360274;28;20046;-73
2022/02/03 17:02:56;;;;;;;5.72;2.60;;;;;;;;;;10380647;28;20097;-72
2022/02/03 17:07:59;;;;;;;3.58;2.65;;;;;;;;;;10380910;28;20038;-72
2022/02/03 17:13:04;;;;;;;2.53;1.50;;;;;;;;;;10371900;28;20062;-71
2022/02/03 17:18:07;;;;;;;8.70;3.50;;;;;;;;;;10378059;28;20030;-72
2022/02/03 17:23:15;;;;;;;12.98;3.38;;;;;;;;;;10363755;28;20038;-71
2022/02/03 17:28:24;;;;;;;11.63;3.65;;;;;;;;;;10364864;28;20109;-73
2022/02/03 18:11:11;;;;;;;7.90;3.20;;;;;;;;;;10357745;28;20049;-71
2022/02/03 18:32:54;;;;;;;6.32;2.50;;;;;;;;;;10369985;28;20125;-70
2022/02/03 18:54:19;;;;;;;8.00;3.28;;;;;;;;;;10348550;28;20037;-71
2022/02/03 19:10:42;;;;;;;7.07;2.95;;;;;;;;;;10357537;28;20049;-71
2022/02/03 20:09:22;;;;;;;6.67;2.03;;;;;;;;;;10321837;28;20389;-71
2022/02/03 20:14:27;;;;;;;5.20;2.53;;;;;;;;;;10420471;22;20053;-77
2022/02/03 20:19:30;;;;;;;;;;;;;;;;;;10420340;28;20053;-77
2022/02/03 20:24:35;;;;;;;6.30;2.97;;;;;;;;;;10384689;28;20039;-78
2022/02/03 20:29:41;;;;;;;4.20;2.27;;;;;;;;;;10384547;28;20040;-79
2022/02/03 20:34:44;;;;;;;4.50;1.90;;;;;;;;;;10388573;28;20064;-77
2022/02/03 20:39:49;;;;;;;6.18;2.78;;;;;;;;;;10395346;28;20549;-77
2022/02/03 20:44:52;;;;;;;5.80;2.70;;;;;;;;;;10371169;28;20038;-77
2022/02/03 20:49:55;;;;;;;4.88;2.78;;;;;;;;;;10366692;28;20073;-77
2022/02/03 20:55:00;;;;;;;6.07;2.37;;;;;;;;;;10371983;28;20670;-77
2022/02/03 21:00:16;;;;;;;2.90;1.50;;;;;;;;;;10356284;28;20034;-78
2022/02/03 21:05:20;;;;;;;7.63;2.93;;;;;;;;;;10381635;28;20029;-77
2022/02/03 21:10:28;;;;;;;5.47;2.90;;;;;;;;;;10376516;28;20063;-77
2022/02/03 21:15:35;;;;;;;6.97;3.10;;;;;;;;;;10373094;28;20069;-78
2022/02/03 21:20:39;;;;;;;5.53;2.80;;;;;;;;;;10381118;28;20700;-77
2022/02/03 21:25:46;;;;;;;8.88;3.70;;;;;;;;;;10372304;28;20037;-77
2022/02/03 21:30:56;;;;;;;5.77;2.80;;;;;;;;;;10361805;28;20074;-77
2022/02/03 21:36:07;;;;;;;5.40;2.72;;;;;;;;;;10376134;28;20042;-78
2022/02/03 21:41:11;;;;;;;7.33;3.27;;;;;;;;;;10358952;28;20050;-75
2022/02/03 21:46:19;;;;;;;9.00;4.00;;;;;;;;;;10368106;28;20098;-80
2022/02/03 21:51:25;;;;;;;8.23;3.47;;;;;;;;;;10367346;28;20042;-78
2022/02/03 21:56:29;;;;;;;7.63;3.03;;;;;;;;;;10349299;28;20070;-75
2022/02/03 22:01:32;;;;;;;12.33;5.93;;;;;;;;;;10355554;28;20037;-77
2022/02/03 22:06:35;;;;;;;3.47;1.67;;;;;;;;;;10348241;28;20093;-78
2022/02/03 22:11:40;;;;;;;11.35;3.78;;;;;;;;;;10341781;28;20066;-75
2022/02/03 22:16:43;;;;;;;;;;;;;;;;;;10348079;28;20179;-76
2022/02/03 22:21:53;;;;;;;8.57;3.10;;;;;;;;;;10350164;28;21309;-77
2022/02/03 22:27:15;;;;;;;9.77;3.37;;;;;;;;;;10352718;28;20038;-77
2022/02/03 22:48:25;;;;;;;10.03;3.87;;;;;;;;;;10331054;28;20445;-79
2022/02/03 22:53:32;;;;;;;9.20;3.43;;;;;;;;;;10366708;28;20111;-78
2022/02/03 23:04:00;;;;;;;6.15;2.85;;;;;;;;;;10375685;28;20096;-76
2022/02/03 23:09:07;;;;;;;2.20;1.03;;;;;;;;;;10402183;28;20082;-76
2022/02/03 23:14:18;;;;;;;8.80;3.37;;;;;;;;;;10386323;28;20037;-76
2022/02/03 23:19:47;;;;;;;8.90;3.07;;;;;;;;;;10373315;28;20046;-77
2022/02/03 23:24:53;;;;;;;11.97;3.57;;;;;;;;;;10370609;28;20092;-76
2022/02/03 23:29:58;;;;;;;4.60;2.03;;;;;;;;;;10378727;28;20113;-76
2022/02/03 23:35:09;;;;;;;3.50;1.63;;;;;;;;;;10405952;28;20073;-75
2022/02/03 23:40:17;;;;;;;5.57;2.27;;;;;;;;;;10396807;28;20517;-74
2022/02/03 23:45:59;;;;;;;4.90;2.40;;;;;;;;;;10371306;28;21128;-77
2022/02/03 23:51:23;;;;;;;6.10;2.53;;;;;;;;;;10368115;28;20049;-77
